Time;durP1;ratioP1;P1;durP2;ratioP2;P2;SDS_P1;SDS_P2;PMS_P1;PMS_P2;Temp;Humidity;BMP_temperature;BMP_pressure;BME280_temperature;BME280_humidity;BME280_pressure;Samples;Min_cycle;Max_cycle;Signal;HPM_P1;HPM_P2
2021/01/02 00:01:02;;;;;;;30.75;22.35;;;4.10;99.90;;;;;;5093486;28;20206;-39
2021/01/02 00:04:13;;;;;;;30.95;23.92;;;4.10;99.90;;;;;;5093478;28;20245;-40
2021/01/02 00:07:04;;;;;;;27.58;19.92;;;4.10;99.90;;;;;;5094052;28;20283;-39
2021/01/02 00:09:34;;;;;;;26.67;21.17;;;4.20;99.90;;;;;;5093327;28;20211;-40
2021/01/02 00:12:15;;;;;;;28.40;22.08;;;4.10;99.90;;;;;;5093194;28;20264;-39
2021/01/02 00:15:03;;;;;;;25.10;19.88;;;4.10;99.90;;;;;;5093378;28;20688;-40
2021/01/02 00:17:59;;;;;;;26.48;21.42;;;4.10;99.90;;;;;;5092827;28;20250;-40
2021/01/02 00:20:41;;;;;;;25.40;20.83;;;4.20;99.90;;;;;;5093097;28;20744;-39
2021/01/02 00:23:21;;;;;;;27.48;19.83;;;4.10;99.90;;;;;;5093378;28;20257;-39
2021/01/02 00:26:01;;;;;;;25.95;19.63;;;4.10;99.90;;;;;;5093001;28;20202;-39
2021/01/02 00:28:31;;;;;;;23.52;17.95;;;4.10;99.90;;;;;;5093201;28;20289;-40
2021/01/02 00:31:35;;;;;;;24.38;18.90;;;4.00;99.90;;;;;;5092986;28;20209;-40
2021/01/02 00:34:29;;;;;;;26.13;19.92;;;4.20;99.90;;;;;;5092620;28;20206;-39
2021/01/02 00:37:03;;;;;;;25.23;20.52;;;4.20;99.90;;;;;;5092842;28;20211;-39
2021/01/02 00:39:41;;;;;;;21.90;18.50;;;4.30;99.90;;;;;;5092930;28;20238;-40
2021/01/02 00:42:13;;;;;;;23.65;19.02;;;4.30;99.90;;;;;;5092699;28;20565;-40
2021/01/02 00:44:42;;;;;;;26.45;20.48;;;4.40;99.90;;;;;;5092966;28;20221;-40
2021/01/02 00:47:11;;;;;;;24.42;19.67;;;4.40;99.90;;;;;;5092813;28;20283;-40
2021/01/02 00:49:38;;;;;;;22.15;18.90;;;4.40;99.90;;;;;;5092711;28;20207;-40
2021/01/02 00:52:19;;;;;;;22.92;19.23;;;4.40;99.90;;;;;;5093441;28;20206;-40
2021/01/02 00:54:59;;;;;;;23.10;18.60;;;4.40;99.90;;;;;;5092287;28;20227;-40
2021/01/02 00:57:50;;;;;;;24.13;19.00;;;4.40;99.90;;;;;;5092697;28;20241;-39
2021/01/02 01:00:18;;;;;;;25.67;19.05;;;4.40;99.90;;;;;;5092614;28;20617;-39
2021/01/02 01:03:01;;;;;;;27.30;20.52;;;4.30;99.90;;;;;;5092906;28;20368;-39
2021/01/02 01:05:32;;;;;;;24.63;18.38;;;4.20;99.90;;;;;;5092352;28;20214;-40
2021/01/02 01:07:59;;;;;;;25.63;20.35;;;4.20;99.90;;;;;;5092237;28;20217;-40
2021/01/02 01:10:28;;;;;;;26.73;20.88;;;4.10;99.90;;;;;;5092117;28;20334;-40
2021/01/02 01:13:00;;;;;;;27.27;19.73;;;4.10;99.90;;;;;;5092366;28;20242;-40
2021/01/02 01:15:28;;;;;;;23.98;18.88;;;4.10;99.90;;;;;;5091876;28;20315;-40
2021/01/02 01:18:35;;;;;;;26.27;20.73;;;4.00;99.90;;;;;;5091972;28;20206;-40
2021/01/02 01:21:06;;;;;;;26.67;20.10;;;4.00;99.90;;;;;;5092274;28;20288;-40
2021/01/02 01:24:00;;;;;;;25.05;19.27;;;4.00;99.90;;;;;;5092098;28;20291;-39
2021/01/02 01:26:55;;;;;;;25.20;19.48;;;4.00;99.90;;;;;;5092029;28;20245;-39
2021/01/02 01:29:29;;;;;;;26.42;20.10;;;4.00;99.90;;;;;;5091370;28;20297;-40
2021/01/02 01:31:57;;;;;;;26.30;20.17;;;4.00;99.90;;;;;;5092180;28;20314;-40
2021/01/02 01:34:26;;;;;;;25.10;18.90;;;4.00;99.90;;;;;;5091816;28;20722;-39
2021/01/02 01:36:54;;;;;;;26.63;21.58;;;4.00;99.90;;;;;;5091843;28;20246;-40
2021/01/02 01:39:22;;;;;;;26.67;21.08;;;3.90;99.90;;;;;;5091832;28;20298;-40
2021/01/02 01:41:54;;;;;;;28.25;20.40;;;3.80;99.90;;;;;;5091938;28;20640;-39
2021/01/02 01:44:45;;;;;;;24.37;19.37;;;3.70;99.90;;;;;;5091739;28;20301;-39
2021/01/02 01:47:18;;;;;;;23.67;18.98;;;3.70;99.90;;;;;;5091848;28;20572;-39
2021/01/02 01:50:20;;;;;;;28.60;20.77;;;3.60;99.90;;;;;;5091981;28;20294;-39
2021/01/02 01:53:37;;;;;;;26.63;19.63;;;3.50;99.90;;;;;;5091829;28;20237;-39
2021/01/02 01:56:15;;;;;;;25.48;19.67;;;3.40;99.90;;;;;;5091659;28;20313;-39
2021/01/02 01:59:19;;;;;;;26.80;20.08;;;3.30;99.90;;;;;;5091686;28;20297;-39
2021/01/02 02:01:49;;;;;;;24.10;18.57;;;3.40;99.90;;;;;;5092031;28;20610;-40
2021/01/02 02:04:51;;;;;;;25.45;19.08;;;3.30;99.90;;;;;;5091725;28;20556;-41
2021/01/02 02:07:20;;;;;;;26.75;19.83;;;3.30;99.90;;;;;;5089268;28;20592;-39
2021/01/02 02:09:59;;;;;;;24.88;18.83;;;3.40;99.90;;;;;;5091629;28;20272;-39
2021/01/02 02:12:32;;;;;;;25.85;19.20;;;3.40;99.90;;;;;;5091831;28;20267;-39
2021/01/02 02:15:11;;;;;;;24.50;18.40;;;3.40;99.90;;;;;;5091619;28;20268;-40
2021/01/02 02:17:44;;;;;;;27.63;20.30;;;3.50;99.90;;;;;;5091790;28;20260;-39
2021/01/02 02:20:15;;;;;;;22.83;18.10;;;3.50;99.90;;;;;;5091908;28;20625;-39
2021/01/02 02:22:42;;;;;;;25.20;18.98;;;3.50;99.90;;;;;;5091633;28;20651;-39
2021/01/02 02:25:12;;;;;;;28.92;20.45;;;3.50;99.90;;;;;;5091596;28;20293;-39
2021/01/02 02:27:41;;;;;;;24.63;18.48;;;3.50;99.90;;;;;;5091528;28;20207;-39
2021/01/02 02:30:14;;;;;;;27.77;19.90;;;3.50;99.90;;;;;;5091401;28;20259;-39
2021/01/02 02:32:44;;;;;;;26.80;19.23;;;3.50;99.90;;;;;;5091220;28;20302;-39
2021/01/02 02:35:14;;;;;;;28.55;20.08;;;3.50;99.90;;;;;;5091216;28;20223;-39
2021/01/02 02:37:44;;;;;;;28.50;20.85;;;3.50;99.90;;;;;;5091500;28;20325;-39
2021/01/02 02:40:13;;;;;;;24.13;19.45;;;3.40;99.90;;;;;;5093772;28;20293;-39
2021/01/02 02:42:46;;;;;;;25.92;19.23;;;3.40;99.90;;;;;;5095220;28;20289;-39
2021/01/02 02:45:14;;;;;;;25.30;19.70;;;3.40;99.90;;;;;;5095085;28;20237;-39
2021/01/02 02:47:45;;;;;;;26.92;19.58;;;3.40;99.90;;;;;;5094907;28;20293;-39
2021/01/02 02:50:19;;;;;;;23.48;18.83;;;3.50;99.90;;;;;;5095150;28;20356;-39
2021/01/02 02:52:56;;;;;;;23.00;17.73;;;3.50;99.90;;;;;;5095124;28;20207;-40
2021/01/02 02:55:24;;;;;;;27.15;18.85;;;3.50;99.90;;;;;;5094867;28;20277;-40
2021/01/02 02:57:51;;;;;;;26.98;20.38;;;3.50;99.90;;;;;;5094637;28;20281;-39
2021/01/02 03:00:19;;;;;;;25.58;19.45;;;3.50;99.90;;;;;;5094985;28;20251;-39
2021/01/02 03:02:48;;;;;;;22.45;17.60;;;3.60;99.90;;;;;;5094768;28;20306;-39
2021/01/02 03:05:16;;;;;;;25.65;18.38;;;3.70;99.90;;;;;;5094847;28;20271;-40
2021/01/02 03:07:44;;;;;;;25.08;17.90;;;3.70;99.90;;;;;;5094728;28;20622;-39
2021/01/02 03:10:14;;;;;;;23.73;18.05;;;3.60;99.90;;;;;;5094316;28;20321;-39
2021/01/02 03:12:43;;;;;;;24.42;18.60;;;3.50;99.90;;;;;;5094822;28;20297;-39
2021/01/02 03:15:11;;;;;;;23.35;17.50;;;3.40;99.90;;;;;;5094726;28;20231;-39
2021/01/02 03:17:40;;;;;;;24.35;18.05;;;3.50;99.90;;;;;;5094646;28;20207;-39
2021/01/02 03:20:09;;;;;;;21.98;18.48;;;3.50;99.90;;;;;;5094472;28;20290;-40
2021/01/02 03:22:41;;;;;;;23.63;19.08;;;3.60;99.90;;;;;;5094418;28;20206;-40
2021/01/02 03:25:09;;;;;;;25.55;18.77;;;3.60;99.90;;;;;;5094587;28;20198;-40
2021/01/02 03:27:37;;;;;;;23.85;18.45;;;3.60;99.90;;;;;;5094547;28;20652;-39
2021/01/02 03:30:05;;;;;;;24.52;16.98;;;3.60;99.90;;;;;;5094639;28;20634;-39
2021/01/02 03:32:34;;;;;;;23.55;16.58;;;3.60;99.90;;;;;;5094540;28;20244;-39
2021/01/02 03:35:02;;;;;;;23.20;18.30;;;3.60;99.90;;;;;;5094306;28;20235;-39
2021/01/02 03:37:30;;;;;;;23.85;18.10;;;3.70;99.90;;;;;;5094215;28;20207;-39
2021/01/02 03:39:56;;;;;;;24.65;17.48;;;3.70;99.90;;;;;;5094583;28;20244;-39
2021/01/02 03:42:25;;;;;;;20.85;16.20;;;3.70;99.90;;;;;;5094384;28;20207;-39
2021/01/02 03:44:52;;;;;;;20.33;17.55;;;3.60;99.90;;;;;;5094195;28;20665;-41
2021/01/02 03:47:19;;;;;;;21.27;17.73;;;3.60;99.90;;;;;;5094178;28;20713;-39
2021/01/02 03:49:46;;;;;;;22.05;17.90;;;3.60;99.90;;;;;;5094173;28;20568;-39
2021/01/02 03:52:13;;;;;;;20.40;16.33;;;3.70;99.90;;;;;;5093125;28;20279;-39
2021/01/02 03:54:41;;;;;;;21.00;17.08;;;3.60;99.90;;;;;;5094253;28;20206;-39
2021/01/02 03:57:08;;;;;;;21.10;16.75;;;3.60;99.90;;;;;;5094038;28;20203;-39
2021/01/02 03:59:35;;;;;;;21.23;17.10;;;3.60;99.90;;;;;;5093951;28;20238;-39
2021/01/02 04:02:02;;;;;;;20.50;15.55;;;3.60;99.90;;;;;;5093868;28;20665;-39
2021/01/02 04:04:29;;;;;;;20.80;16.30;;;3.60;99.90;;;;;;5093732;28;20207;-39
2021/01/02 04:06:56;;;;;;;21.77;17.00;;;3.50;99.90;;;;;;5093783;28;20203;-44
2021/01/02 04:09:25;;;;;;;20.50;15.95;;;3.50;99.90;;;;;;5093850;28;20293;-40
2021/01/02 04:11:53;;;;;;;20.35;16.80;;;3.60;99.90;;;;;;5093527;28;20318;-40
2021/01/02 04:14:20;;;;;;;24.63;17.85;;;3.70;99.90;;;;;;5093526;28;20211;-39
2021/01/02 04:16:47;;;;;;;21.67;18.15;;;3.80;99.90;;;;;;5093458;28;20273;-40
2021/01/02 04:19:14;;;;;;;20.42;16.95;;;3.90;99.90;;;;;;5093430;28;20254;-40
2021/01/02 04:21:41;;;;;;;21.80;17.70;;;3.90;99.90;;;;;;5093342;28;20213;-40
2021/01/02 04:24:08;;;;;;;19.33;15.65;;;4.10;99.90;;;;;;5093536;28;20640;-40
2021/01/02 04:26:35;;;;;;;23.45;17.73;;;4.10;99.90;;;;;;5093387;28;20211;-40
2021/01/02 04:29:03;;;;;;;23.38;17.63;;;4.10;99.90;;;;;;5093275;28;20207;-39
2021/01/02 04:31:35;;;;;;;21.10;16.30;;;4.10;99.90;;;;;;5093257;28;20207;-40
2021/01/02 04:34:02;;;;;;;20.65;16.95;;;4.20;99.90;;;;;;5093272;28;20844;-41
2021/01/02 04:36:29;;;;;;;20.00;16.60;;;4.20;99.90;;;;;;5093013;28;20331;-38
2021/01/02 04:38:57;;;;;;;22.80;16.92;;;4.20;99.90;;;;;;5093066;28;20297;-39
2021/01/02 04:41:25;;;;;;;21.23;16.48;;;4.20;99.90;;;;;;5092939;28;20283;-39
2021/01/02 04:43:53;;;;;;;19.88;15.77;;;4.20;99.90;;;;;;5093115;28;20285;-39
2021/01/02 04:46:22;;;;;;;22.58;17.40;;;4.20;99.90;;;;;;5092849;28;20210;-39
2021/01/02 04:48:49;;;;;;;19.85;15.48;;;4.10;99.90;;;;;;5092666;28;20238;-39
2021/01/02 04:51:17;;;;;;;22.27;16.17;;;4.00;99.90;;;;;;5092881;28;20211;-39
2021/01/02 04:53:45;;;;;;;20.52;15.82;;;3.90;99.90;;;;;;5091601;28;20245;-39
2021/01/02 04:56:12;;;;;;;22.05;17.10;;;3.90;99.90;;;;;;5092506;28;20268;-40
2021/01/02 04:58:42;;;;;;;21.38;16.98;;;3.90;99.90;;;;;;5092471;28;20741;-39
2021/01/02 05:01:10;;;;;;;22.63;17.92;;;3.80;99.90;;;;;;5092518;28;20625;-40
2021/01/02 05:03:44;;;;;;;19.30;16.30;;;3.70;99.90;;;;;;5092577;28;20206;-39
2021/01/02 05:06:11;;;;;;;19.75;17.17;;;3.60;99.90;;;;;;5092464;28;20202;-39
2021/01/02 05:08:40;;;;;;;19.30;16.00;;;3.50;99.90;;;;;;5092651;28;20302;-40
2021/01/02 05:11:07;;;;;;;20.85;17.27;;;3.50;99.90;;;;;;5092229;28;20643;-39
2021/01/02 05:13:37;;;;;;;22.80;17.38;;;3.50;99.90;;;;;;5092625;28;20237;-39
2021/01/02 05:16:18;;;;;;;20.95;16.00;;;3.40;99.90;;;;;;5092534;28;20227;-38
2021/01/02 05:18:53;;;;;;;23.42;17.42;;;3.40;99.90;;;;;;5092294;28;20309;-40
2021/01/02 05:21:21;;;;;;;20.70;15.63;;;3.30;99.90;;;;;;5092358;28;20281;-41
2021/01/02 05:24:09;;;;;;;19.70;16.23;;;3.20;99.90;;;;;;5092082;28;20206;-38
2021/01/02 05:26:39;;;;;;;22.52;17.50;;;3.20;99.90;;;;;;5092366;28;20242;-40
2021/01/02 05:29:10;;;;;;;21.85;16.17;;;3.20;99.90;;;;;;5092189;28;20213;-40
2021/01/02 05:31:39;;;;;;;19.88;15.52;;;3.20;99.90;;;;;;5092466;28;20491;-40
2021/01/02 05:34:07;;;;;;;20.52;16.83;;;3.20;99.90;;;;;;5091974;28;20203;-40
2021/01/02 05:36:35;;;;;;;20.48;15.82;;;3.30;99.90;;;;;;5091898;28;20693;-39
2021/01/02 05:39:04;;;;;;;23.75;17.70;;;3.40;99.90;;;;;;5091759;28;20218;-40
2021/01/02 05:41:47;;;;;;;19.63;16.92;;;3.50;99.90;;;;;;5091736;28;20639;-40
2021/01/02 05:44:15;;;;;;;21.65;16.90;;;3.50;99.90;;;;;;5091798;28;20285;-39
2021/01/02 05:46:47;;;;;;;20.98;16.58;;;3.60;99.90;;;;;;5091908;28;20234;-40
2021/01/02 05:49:35;;;;;;;18.88;15.77;;;3.50;99.90;;;;;;5091553;28;20313;-40
2021/01/02 05:52:04;;;;;;;18.25;15.32;;;3.60;99.90;;;;;;5091802;28;20293;-39
2021/01/02 05:54:32;;;;;;;21.63;16.70;;;3.60;99.90;;;;;;5091669;28;20691;-39
2021/01/02 05:57:00;;;;;;;22.50;17.50;;;3.70;99.90;;;;;;5091993;28;20257;-39
2021/01/02 05:59:35;;;;;;;20.02;17.23;;;3.70;99.90;;;;;;5091937;28;20325;-40
2021/01/02 06:02:19;;;;;;;19.80;16.95;;;3.60;99.90;;;;;;5091816;28;20690;-40
2021/01/02 06:04:58;;;;;;;19.45;15.95;;;3.70;99.90;;;;;;5091362;28;20252;-38
2021/01/02 06:07:28;;;;;;;21.33;16.60;;;3.60;99.90;;;;;;5091540;28;20206;-40
2021/01/02 06:09:55;;;;;;;20.42;17.35;;;3.60;99.90;;;;;;5091572;28;20326;-40
2021/01/02 06:12:28;;;;;;;19.77;17.08;;;3.50;99.90;;;;;;5091805;28;20214;-40
2021/01/02 06:15:00;;;;;;;19.38;15.60;;;3.50;99.90;;;;;;5093585;28;20206;-40
2021/01/02 06:17:29;;;;;;;21.13;16.10;;;3.40;99.90;;;;;;5095473;28;20668;-40
2021/01/02 06:19:59;;;;;;;20.95;16.35;;;3.50;99.90;;;;;;5095407;28;20601;-41
2021/01/02 06:22:29;;;;;;;20.67;16.42;;;3.40;99.90;;;;;;5095638;28;20211;-39
2021/01/02 06:24:57;;;;;;;19.52;16.10;;;3.40;99.90;;;;;;5095512;28;20210;-39
2021/01/02 06:27:25;;;;;;;20.80;16.83;;;3.30;99.90;;;;;;5095527;28;20215;-40
2021/01/02 06:29:54;;;;;;;20.08;17.15;;;3.50;99.90;;;;;;5095180;28;20293;-38
2021/01/02 06:32:23;;;;;;;21.88;17.38;;;3.50;99.90;;;;;;5095006;28;20245;-39
2021/01/02 06:35:20;;;;;;;20.75;17.00;;;3.50;99.90;;;;;;5094923;28;20219;-39
2021/01/02 06:38:06;;;;;;;20.70;17.05;;;3.50;99.90;;;;;;5095337;28;20301;-40
2021/01/02 06:40:38;;;;;;;22.17;16.92;;;3.60;99.90;;;;;;5095189;28;20206;-38
2021/01/02 06:43:07;;;;;;;18.48;15.80;;;3.70;99.90;;;;;;5095063;28;20207;-40
2021/01/02 06:46:01;;;;;;;19.40;15.73;;;3.80;99.90;;;;;;5095375;28;20294;-40
2021/01/02 06:48:43;;;;;;;21.27;15.85;;;3.70;99.90;;;;;;5085975;28;20202;-40
2021/01/02 06:51:33;;;;;;;20.30;15.77;;;3.70;99.90;;;;;;5094850;28;20249;-39
2021/01/02 06:54:01;;;;;;;19.00;15.30;;;3.70;99.90;;;;;;5094995;28;20349;-39
2021/01/02 06:56:35;;;;;;;20.88;16.25;;;3.70;99.90;;;;;;5094778;28;20234;-40
2021/01/02 06:59:04;;;;;;;19.08;14.70;;;3.70;99.90;;;;;;5095087;28;20699;-40
2021/01/02 07:01:41;;;;;;;18.45;14.82;;;3.70;99.90;;;;;;5094861;28;20650;-40
2021/01/02 07:04:09;;;;;;;17.88;15.38;;;3.80;99.90;;;;;;5094859;28;20253;-39
2021/01/02 07:06:44;;;;;;;18.70;14.82;;;3.80;99.90;;;;;;5094609;28;20700;-40
2021/01/02 07:09:25;;;;;;;22.17;17.10;;;3.80;99.90;;;;;;5094509;28;20248;-39
2021/01/02 07:12:12;;;;;;;18.30;15.40;;;3.60;99.90;;;;;;5094003;28;20241;-39
2021/01/02 07:14:40;;;;;;;21.07;16.63;;;3.40;99.90;;;;;;5094644;28;20289;-40
2021/01/02 07:17:10;;;;;;;19.73;16.35;;;3.30;99.90;;;;;;5094348;28;20336;-39
2021/01/02 07:19:48;;;;;;;20.38;16.30;;;3.30;99.90;;;;;;5094297;28;20617;-40
2021/01/02 07:22:27;;;;;;;21.98;16.88;;;3.10;99.90;;;;;;5094515;28;20310;-40
2021/01/02 07:24:58;;;;;;;26.13;18.30;;;3.00;99.90;;;;;;5094155;28;20298;-40
2021/01/02 07:27:29;;;;;;;23.90;17.85;;;2.90;99.90;;;;;;5093193;28;20675;-40
2021/01/02 07:30:00;;;;;;;20.27;17.33;;;2.90;99.90;;;;;;5094488;28;20211;-39
2021/01/02 07:32:29;;;;;;;21.48;18.27;;;2.90;99.90;;;;;;5094144;28;20639;-40
2021/01/02 07:34:58;;;;;;;19.17;16.05;;;2.90;99.90;;;;;;5093832;28;20206;-40
2021/01/02 07:37:32;;;;;;;20.98;16.70;;;2.90;99.90;;;;;;5094164;28;20406;-40
2021/01/02 07:40:01;;;;;;;19.48;16.55;;;2.90;99.90;;;;;;5093898;28;20687;-39
2021/01/02 07:42:30;;;;;;;19.13;16.00;;;2.90;99.90;;;;;;5094226;28;20293;-39
2021/01/02 07:45:02;;;;;;;19.48;16.00;;;3.00;99.90;;;;;;5093900;28;20206;-38
2021/01/02 07:47:29;;;;;;;17.83;15.77;;;3.00;99.90;;;;;;5093708;28;20373;-39
2021/01/02 07:50:11;;;;;;;21.08;16.23;;;3.10;99.90;;;;;;5093819;28;20210;-39
2021/01/02 07:52:47;;;;;;;20.15;15.60;;;3.20;99.90;;;;;;5093884;28;20234;-39
2021/01/02 07:55:16;;;;;;;19.52;16.15;;;3.20;99.90;;;;;;5093733;28;20242;-40
2021/01/02 07:57:43;;;;;;;20.10;16.55;;;3.20;99.90;;;;;;5093988;28;20312;-39
2021/01/02 08:00:11;;;;;;;20.30;16.88;;;3.30;99.90;;;;;;5093788;28;20799;-39
2021/01/02 08:02:41;;;;;;;20.88;17.83;;;3.30;99.90;;;;;;5093514;28;20211;-39
2021/01/02 08:05:10;;;;;;;19.52;17.45;;;3.30;99.90;;;;;;5093710;28;20211;-39
2021/01/02 08:07:39;;;;;;;21.40;17.58;;;3.30;99.90;;;;;;5093702;28;20269;-40
2021/01/02 08:10:11;;;;;;;21.05;16.60;;;3.30;99.90;;;;;;5093537;28;20569;-41
2021/01/02 08:12:44;;;;;;;20.02;16.73;;;3.30;99.90;;;;;;5094001;28;20222;-40
2021/01/02 08:15:14;;;;;;;19.77;17.38;;;3.40;99.90;;;;;;5093802;28;20234;-43
2021/01/02 08:17:42;;;;;;;22.75;16.95;;;3.50;99.90;;;;;;5093893;28;20257;-40
2021/01/02 08:20:10;;;;;;;19.02;17.05;;;3.40;99.90;;;;;;5093578;28;20253;-39
2021/01/02 08:22:39;;;;;;;22.60;18.13;;;3.40;99.90;;;;;;5093516;28;20650;-39
2021/01/02 08:25:11;;;;;;;21.73;16.75;;;3.40;99.90;;;;;;5093484;28;20206;-39
2021/01/02 08:27:38;;;;;;;20.50;17.17;;;3.40;99.90;;;;;;5093699;28;20297;-38
2021/01/02 08:30:09;;;;;;;39.72;27.70;;;3.40;99.90;;;;;;5093341;28;20206;-38
2021/01/02 08:32:40;;;;;;;19.00;16.52;;;3.30;99.90;;;;;;5093012;28;20209;-39
2021/01/02 08:35:18;;;;;;;20.40;16.10;;;3.30;99.90;;;;;;5093098;28;20242;-42
2021/01/02 08:37:48;;;;;;;19.58;16.42;;;3.40;99.90;;;;;;5092791;28;20202;-42
2021/01/02 08:40:16;;;;;;;31.05;23.83;;;3.50;99.90;;;;;;5093427;28;20290;-39
2021/01/02 08:42:46;;;;;;;19.80;16.58;;;3.60;99.90;;;;;;5092936;28;20699;-39
2021/01/02 08:45:15;;;;;;;20.75;16.63;;;3.60;99.90;;;;;;5092705;28;20214;-40
2021/01/02 08:47:42;;;;;;;18.02;15.80;;;3.60;99.90;;;;;;5092764;28;20665;-39
2021/01/02 08:50:13;;;;;;;16.90;14.77;;;3.60;99.90;;;;;;5092610;28;20938;-39
2021/01/02 08:52:41;;;;;;;20.30;16.15;;;3.70;99.90;;;;;;5093095;28;20238;-41
2021/01/02 08:55:12;;;;;;;18.80;14.85;;;3.80;99.90;;;;;;5093151;28;20289;-41
2021/01/02 08:57:46;;;;;;;19.08;14.93;;;3.90;99.90;;;;;;5092955;28;20227;-40
2021/01/02 09:00:23;;;;;;;17.73;15.00;;;3.90;99.90;;;;;;5092647;28;20573;-40
2021/01/02 09:03:03;;;;;;;16.65;14.43;;;4.00;99.90;;;;;;5093087;28;20290;-39
2021/01/02 09:05:31;;;;;;;17.15;14.93;;;4.00;99.90;;;;;;5092812;28;20202;-40
2021/01/02 09:07:59;;;;;;;17.50;14.13;;;4.00;99.90;;;;;;5092754;28;20240;-40
2021/01/02 09:10:30;;;;;;;18.52;14.95;;;3.90;99.90;;;;;;5092538;28;20238;-40
2021/01/02 09:13:06;;;;;;;16.20;14.20;;;3.90;99.90;;;;;;5092581;28;20238;-40
2021/01/02 09:15:49;;;;;;;20.67;14.77;;;4.00;99.90;;;;;;5092631;28;20211;-42
2021/01/02 09:18:39;;;;;;;19.00;15.60;;;4.10;99.90;;;;;;5092747;28;20206;-41
2021/01/02 09:21:23;;;;;;;19.58;16.73;;;4.20;99.90;;;;;;5092524;28;20253;-40
2021/01/02 09:23:59;;;;;;;19.85;14.52;;;4.20;99.90;;;;;;5092364;28;20214;-40
2021/01/02 09:26:32;;;;;;;20.83;16.27;;;4.20;99.90;;;;;;5092415;28;20278;-40
2021/01/02 09:29:01;;;;;;;19.58;14.77;;;4.30;99.90;;;;;;5092517;28;20297;-39
2021/01/02 09:31:34;;;;;;;22.92;18.25;;;4.30;99.90;;;;;;5092429;28;20294;-41
2021/01/02 09:34:01;;;;;;;19.70;14.98;;;4.30;99.90;;;;;;5092186;28;20221;-41
2021/01/02 09:36:28;;;;;;;18.05;15.05;;;4.40;99.90;;;;;;5092045;28;20336;-41
2021/01/02 09:38:55;;;;;;;18.00;14.90;;;4.50;99.90;;;;;;5092335;28;20264;-41
2021/01/02 09:41:25;;;;;;;15.90;14.30;;;4.70;99.90;;;;;;5092134;28;20206;-41
2021/01/02 09:43:54;;;;;;;17.25;14.90;;;4.80;99.90;;;;;;5092029;28;20211;-41
2021/01/02 09:46:22;;;;;;;15.32;13.48;;;4.90;99.90;;;;;;5092236;28;20234;-41
2021/01/02 09:48:51;;;;;;;15.85;13.77;;;5.00;99.90;;;;;;5091192;28;20295;-41
2021/01/02 09:51:19;;;;;;;19.40;14.93;;;5.00;99.90;;;;;;5092027;28;20209;-41
2021/01/02 09:53:46;;;;;;;15.70;13.88;;;5.00;99.90;;;;;;5091994;28;20279;-41
2021/01/02 09:56:13;;;;;;;16.13;13.95;;;5.10;99.90;;;;;;5091709;28;20305;-41
2021/01/02 09:58:43;;;;;;;16.92;13.60;;;5.10;99.90;;;;;;5091657;28;20210;-40
2021/01/02 10:01:13;;;;;;;15.27;13.43;;;5.10;99.90;;;;;;5091925;28;20253;-41
2021/01/02 10:03:41;;;;;;;15.52;13.82;;;5.00;99.90;;;;;;5092015;28;20206;-41
2021/01/02 10:06:08;;;;;;;16.25;14.27;;;5.00;99.90;;;;;;5091828;28;20210;-39
2021/01/02 10:08:35;;;;;;;15.88;13.50;;;4.90;99.90;;;;;;5091911;28;20242;-38
2021/01/02 10:11:03;;;;;;;17.20;14.27;;;4.90;99.90;;;;;;5091416;28;20238;-39
2021/01/02 10:13:30;;;;;;;17.95;15.00;;;4.90;99.90;;;;;;5091855;28;20261;-39
2021/01/02 10:15:58;;;;;;;18.27;15.30;;;4.90;99.90;;;;;;5091919;28;20232;-39
2021/01/02 10:18:30;;;;;;;16.25;14.23;;;5.00;99.90;;;;;;5091964;28;20206;-39
2021/01/02 10:20:57;;;;;;;16.70;13.45;;;4.90;99.90;;;;;;5091789;28;20301;-40
2021/01/02 10:23:24;;;;;;;17.98;15.07;;;4.90;99.90;;;;;;5091615;28;20249;-39
2021/01/02 10:25:51;;;;;;;18.70;14.68;;;4.80;99.90;;;;;;5091961;28;20549;-40
2021/01/02 10:28:18;;;;;;;19.63;15.50;;;4.90;99.90;;;;;;5091582;28;20222;-40
2021/01/02 10:30:45;;;;;;;16.75;14.02;;;4.90;99.90;;;;;;5091453;28;20253;-42
2021/01/02 10:33:13;;;;;;;19.52;15.93;;;4.90;99.90;;;;;;5091611;28;20628;-42
2021/01/02 10:35:40;;;;;;;17.65;15.75;;;4.90;99.90;;;;;;5091558;28;20203;-41
2021/01/02 10:38:07;;;;;;;20.10;15.80;;;4.80;99.90;;;;;;5091573;28;20298;-41
2021/01/02 10:40:34;;;;;;;19.90;16.30;;;4.70;99.90;;;;;;5091522;28;20232;-41
2021/01/02 10:43:01;;;;;;;18.38;16.08;;;4.70;99.90;;;;;;5091532;28;20325;-41
2021/01/02 10:45:28;;;;;;;18.83;15.52;;;4.60;99.90;;;;;;5091712;28;20202;-40
2021/01/02 10:47:55;;;;;;;17.08;15.05;;;4.60;99.90;;;;;;5091478;28;20207;-40
2021/01/02 10:50:23;;;;;;;19.40;15.48;;;4.60;99.90;;;;;;5091398;28;20655;-40
2021/01/02 10:52:50;;;;;;;19.30;16.50;;;4.70;99.90;;;;;;5091423;28;20236;-39
2021/01/02 10:55:17;;;;;;;20.60;16.55;;;4.70;99.90;;;;;;5091605;28;20238;-39
2021/01/02 10:57:45;;;;;;;19.08;16.23;;;4.70;99.90;;;;;;5091337;28;20233;-40
2021/01/02 11:00:13;;;;;;;18.58;15.90;;;4.70;99.90;;;;;;5092251;28;20736;-39
2021/01/02 11:02:40;;;;;;;17.17;15.38;;;4.60;99.90;;;;;;5095054;28;20695;-39
2021/01/02 11:05:08;;;;;;;20.00;16.25;;;4.60;99.90;;;;;;5095099;28;20234;-39
2021/01/02 11:07:36;;;;;;;23.52;17.70;;;4.60;99.90;;;;;;5094779;28;20302;-38
2021/01/02 11:10:05;;;;;;;20.90;16.50;;;4.60;99.90;;;;;;5094733;28;20242;-39
2021/01/02 11:12:32;;;;;;;21.85;18.17;;;4.60;99.90;;;;;;5094822;28;20210;-38
2021/01/02 11:14:59;;;;;;;20.90;18.08;;;4.60;99.90;;;;;;5094789;28;20242;-45
2021/01/02 11:17:26;;;;;;;21.80;17.83;;;4.60;99.90;;;;;;5094829;28;20723;-39
2021/01/02 11:19:53;;;;;;;23.98;18.58;;;4.60;99.90;;;;;;5094612;28;20215;-39
2021/01/02 11:22:21;;;;;;;19.48;17.08;;;4.50;99.90;;;;;;5094761;28;20221;-41
2021/01/02 11:24:49;;;;;;;20.08;16.90;;;4.50;99.90;;;;;;5094974;28;20256;-40
2021/01/02 11:27:18;;;;;;;19.90;17.23;;;4.40;99.90;;;;;;5094976;28;20320;-41
2021/01/02 11:29:46;;;;;;;27.90;18.95;;;4.30;99.90;;;;;;5094561;28;20606;-39
2021/01/02 11:32:13;;;;;;;24.98;20.17;;;4.20;99.90;;;;;;5094634;28;20249;-39
2021/01/02 11:34:40;;;;;;;22.42;17.73;;;4.20;99.90;;;;;;5094624;28;20219;-38
2021/01/02 11:37:10;;;;;;;23.48;18.38;;;4.10;99.90;;;;;;5094434;28;20318;-39
2021/01/02 11:39:38;;;;;;;22.38;19.20;;;4.10;99.90;;;;;;5094610;28;20298;-40
2021/01/02 11:42:09;;;;;;;24.27;18.85;;;4.00;99.90;;;;;;5094424;28;20297;-40
2021/01/02 11:44:36;;;;;;;24.90;18.98;;;3.90;99.90;;;;;;5094675;28;20298;-40
2021/01/02 11:47:04;;;;;;;25.47;19.30;;;3.90;99.90;;;;;;5094130;28;20526;-38
2021/01/02 11:49:36;;;;;;;22.58;17.27;;;3.80;99.90;;;;;;5094161;28;20203;-40
2021/01/02 11:52:05;;;;;;;22.77;17.85;;;3.80;99.90;;;;;;5094238;28;20240;-37
2021/01/02 11:54:34;;;;;;;24.23;18.65;;;3.80;99.90;;;;;;5094145;28;20241;-39
2021/01/02 11:57:03;;;;;;;24.20;18.67;;;3.70;99.90;;;;;;5094143;28;20237;-40
2021/01/02 11:59:31;;;;;;;25.05;19.50;;;3.70;99.90;;;;;;5093964;28;20241;-40
2021/01/02 12:01:59;;;;;;;25.67;18.02;;;3.60;99.90;;;;;;5093732;28;20662;-39
2021/01/02 12:04:28;;;;;;;27.05;19.85;;;3.50;99.90;;;;;;5093895;28;20258;-40
2021/01/02 12:06:56;;;;;;;23.55;18.90;;;3.50;99.90;;;;;;5093908;28;20242;-38
2021/01/02 12:09:25;;;;;;;27.00;19.38;;;3.40;99.90;;;;;;5093844;28;20219;-38
2021/01/02 12:11:53;;;;;;;27.25;19.77;;;3.40;99.90;;;;;;5092383;28;20278;-38
2021/01/02 12:14:23;;;;;;;26.15;20.55;;;3.40;99.90;;;;;;5093365;28;20257;-40
2021/01/02 12:16:52;;;;;;;22.85;19.92;;;3.40;99.90;;;;;;5093567;28;20262;-39
2021/01/02 12:19:22;;;;;;;23.67;19.80;;;3.30;99.90;;;;;;5093908;28;20222;-40
2021/01/02 12:21:51;;;;;;;27.30;19.90;;;3.40;99.90;;;;;;5093581;28;20338;-40
2021/01/02 12:24:18;;;;;;;24.90;19.90;;;3.40;99.90;;;;;;5093377;28;20649;-42
2021/01/02 12:26:48;;;;;;;27.05;20.95;;;3.40;99.90;;;;;;5093643;28;20207;-38
2021/01/02 12:29:16;;;;;;;25.25;20.42;;;3.30;99.90;;;;;;5092711;28;20215;-40
2021/01/02 12:31:45;;;;;;;31.47;22.67;;;3.20;99.90;;;;;;5093132;28;20324;-40
2021/01/02 12:34:14;;;;;;;27.02;20.83;;;3.10;99.90;;;;;;5093064;28;20202;-40
2021/01/02 12:36:43;;;;;;;26.52;20.95;;;3.00;99.90;;;;;;5093006;28;20219;-42
2021/01/02 12:39:13;;;;;;;28.35;22.08;;;3.00;99.90;;;;;;5092987;28;20246;-40
2021/01/02 12:41:40;;;;;;;30.90;21.52;;;2.90;99.90;;;;;;5093195;28;20206;-39
2021/01/02 12:44:08;;;;;;;29.15;22.25;;;2.90;99.90;;;;;;5093023;28;20342;-39
2021/01/02 12:46:41;;;;;;;29.40;22.25;;;2.90;99.90;;;;;;5092831;28;20298;-39
2021/01/02 12:49:08;;;;;;;32.55;22.33;;;2.90;99.90;;;;;;5092619;28;20246;-40
2021/01/02 12:51:36;;;;;;;28.27;20.73;;;2.90;99.90;;;;;;5092837;28;20285;-40
2021/01/02 12:54:05;;;;;;;30.33;22.77;;;2.90;99.90;;;;;;5093040;28;20211;-40
2021/01/02 12:56:32;;;;;;;32.08;22.98;;;2.80;99.90;;;;;;5092756;28;20231;-41
2021/01/02 12:59:00;;;;;;;32.08;21.90;;;2.80;99.90;;;;;;5092744;28;20225;-40